Time;durP1;ratioP1;P1;durP2;ratioP2;P2;SDS_P1;SDS_P2;PMS_P1;PMS_P2;Temp;Humidity;BMP_temperature;BMP_pressure;BME280_temperature;BME280_humidity;BME280_pressure;Samples;Min_cycle;Max_cycle;Signal;HPM_P1;HPM_P2
2021/08/30 00:00:51;;;;;;;8.75;7.90;;;;;;;19.79;99.16;99069.40;1688948;85;21601;-75
2021/08/30 00:03:18;;;;;;;11.90;7.17;;;;;;;19.77;99.19;99113.94;1688676;85;20949;-77
2021/08/30 00:05:44;;;;;;;11.70;7.25;;;;;;;19.77;99.53;99143.39;1688557;85;21072;-78
2021/08/30 00:08:11;;;;;;;10.28;7.50;;;;;;;19.70;100.00;99117.17;1665071;85;21806;-77
2021/08/30 00:10:38;;;;;;;7.95;7.17;;;;;;;19.66;100.00;99070.41;1688755;85;21001;-79
2021/08/30 00:13:04;;;;;;;11.33;7.70;;;;;;;19.61;100.00;99061.02;1664953;85;20949;-79
2021/08/30 00:15:32;;;;;;;11.30;8.35;;;;;;;19.58;100.00;99052.34;1662382;85;21083;-75
2021/08/30 00:17:59;;;;;;;11.43;7.35;;;;;;;19.54;100.00;99047.87;1666342;84;21092;-74
2021/08/30 00:20:26;;;;;;;8.15;7.35;;;;;;;19.47;100.00;99034.72;1614498;87;21063;-77
2021/08/30 00:22:54;;;;;;;10.68;7.92;;;;;;;19.47;100.00;99034.72;1625379;87;21008;-77
2021/08/30 00:25:22;;;;;;;9.15;8.03;;;;;;;19.39;100.00;99045.62;1647419;87;20944;-77
2021/08/30 00:27:50;;;;;;;8.95;7.72;;;;;;;19.34;100.00;99054.77;1647985;86;20988;-75
2021/08/30 00:30:18;;;;;;;9.08;7.85;;;;;;;19.36;100.00;99038.09;1647700;86;21569;-74
2021/08/30 00:32:46;;;;;;;10.08;8.25;;;;;;;19.35;100.00;99048.75;1623707;87;21543;-74
2021/08/30 00:35:12;;;;;;;10.40;7.72;;;;;;;19.27;100.00;99053.11;1638176;85;21024;-74
2021/08/30 00:37:39;;;;;;;10.82;7.78;;;;;;;19.27;100.00;99053.11;1655119;85;21137;-75
2021/08/30 00:40:08;;;;;;;11.08;8.58;;;;;;;19.28;100.00;99036.19;1647499;87;21104;-71
2021/08/30 00:42:36;;;;;;;12.88;7.35;;;;;;;19.25;100.00;99047.72;1647885;85;21024;-78
2021/08/30 00:45:06;;;;;;;8.30;7.40;;;;;;;19.27;100.00;99052.30;1634131;87;21147;-81
2021/08/30 00:47:34;;;;;;;11.20;6.50;;;;;;;19.27;100.00;99043.56;1647796;86;21032;-83
2021/08/30 00:50:01;;;;;;;12.60;8.15;;;;;;;19.30;100.00;99059.83;1647884;87;21047;-84
2021/08/30 00:52:27;;;;;;;7.75;6.95;;;;;;;19.32;100.00;99042.03;1647666;86;21079;-84
2021/08/30 00:54:54;;;;;;;16.60;7.80;;;;;;;19.34;100.00;99043.86;1623804;86;21091;-84
2021/08/30 00:57:20;;;;;;;9.18;7.53;;;;;;;19.34;100.00;99057.49;1647442;85;21126;-71
2021/08/30 00:59:47;;;;;;;13.93;8.20;;;;;;;19.33;100.00;99029.20;1647682;87;20929;-78
2021/08/30 01:02:13;;;;;;;11.20;7.60;;;;;;;19.33;100.00;99014.20;1647797;85;21568;-74
2021/08/30 01:04:40;;;;;;;12.60;7.75;;;;;;;19.34;100.00;99034.88;1647378;87;21143;-83
2021/08/30 01:07:57;;;;;;;11.83;7.78;;;;;;;19.38;100.00;99043.45;1646765;86;21128;-77
2021/08/30 01:10:33;;;;;;;10.93;7.35;;;;;;;19.42;100.00;99028.06;1647213;87;21050;-79
2021/08/30 01:13:04;;;;;;;10.60;8.30;;;;;;;19.42;100.00;99049.08;1669868;85;21617;-80
2021/08/30 01:15:39;;;;;;;12.47;7.25;;;;;;;19.42;100.00;99034.08;1651489;85;22239;-79
2021/08/30 01:18:04;;;;;;;10.60;8.25;;;;;;;19.42;100.00;99034.08;1674164;84;21517;-82
2021/08/30 01:21:00;;;;;;;10.98;8.63;;;;;;;19.43;100.00;99026.91;1694532;83;21003;-82
2021/08/30 01:23:27;;;;;;;12.25;8.75;;;;;;;19.44;100.00;99025.83;1711091;83;21186;-77
2021/08/30 01:25:54;;;;;;;9.25;6.97;;;;;;;19.45;100.00;99026.63;1657236;85;20952;-77
2021/08/30 01:28:24;;;;;;;8.78;7.85;;;;;;;19.48;100.00;99024.05;1688952;84;21565;-76
2021/08/30 01:30:51;;;;;;;9.43;7.40;;;;;;;19.48;100.00;99024.05;1673100;85;21032;-79
2021/08/30 01:33:17;;;;;;;7.65;6.92;;;;;;;19.48;100.00;99024.61;1689615;85;21044;-77
2021/08/30 01:35:44;;;;;;;10.18;8.60;;;;;;;19.50;100.00;99034.09;1659994;85;21053;-78
2021/08/30 01:38:10;;;;;;;9.58;8.10;;;;;;;19.53;100.00;99028.53;1689880;85;21032;-78
2021/08/30 01:40:38;;;;;;;13.32;9.50;;;;;;;19.50;100.00;99023.17;1690275;85;21627;-78
2021/08/30 01:43:05;;;;;;;7.55;6.83;;;;;;;19.51;100.00;99022.62;1688120;85;20925;-78
2021/08/30 01:45:33;;;;;;;8.45;7.53;;;;;;;19.52;100.00;99023.63;1688675;85;20973;-80
2021/08/30 01:48:03;;;;;;;7.90;7.10;;;;;;;19.53;100.00;99015.70;1646791;84;40410;-78
2021/08/30 01:50:29;;;;;;;8.45;7.65;;;;;;;19.53;100.00;99016.25;1674707;83;21114;-78
2021/08/30 01:52:59;;;;;;;9.75;8.13;;;;;;;19.50;100.00;99023.17;1671308;83;20988;-79
2021/08/30 01:55:41;;;;;;;9.90;8.20;;;;;;;19.42;100.00;99019.88;1695183;83;21517;-77
2021/08/30 02:00:51;;;;;;;8.65;7.15;;;;;;;19.35;100.00;99025.58;1694453;83;21986;-78
2021/08/30 02:03:23;;;;;;;8.68;7.20;;;;;;;19.36;100.00;99017.08;1688304;84;20909;-79
2021/08/30 02:06:00;;;;;;;8.93;8.13;;;;;;;19.34;100.00;99012.50;1689797;85;21030;-77
2021/08/30 02:08:30;;;;;;;11.05;7.60;;;;;;;19.36;100.00;99032.64;1688480;85;21084;-79
2021/08/30 02:11:05;;;;;;;11.43;8.20;;;;;;;19.33;100.00;99038.75;1688719;85;21001;-79
2021/08/30 02:13:32;;;;;;;10.72;7.50;;;;;;;19.34;100.00;99036.23;1687578;84;21257;-79
2021/08/30 02:16:01;;;;;;;13.20;8.90;;;;;;;19.34;100.00;99034.31;1690051;85;20988;-77
2021/08/30 02:18:48;;;;;;;9.20;7.47;;;;;;;19.35;100.00;99032.39;1646608;86;21044;-80
2021/08/30 02:21:46;;;;;;;10.13;7.80;;;;;;;19.35;100.00;99037.84;1661231;85;20996;-80
2021/08/30 02:24:40;;;;;;;11.15;8.20;;;;;;;19.34;100.00;99048.52;1651046;86;21025;-79
2021/08/30 02:27:27;;;;;;;10.75;8.23;;;;;;;19.32;100.00;99063.05;1670698;85;22417;-79
2021/08/30 02:30:10;;;;;;;9.65;8.13;;;;;;;19.30;100.00;99062.00;1659478;85;21041;-80
2021/08/30 02:32:36;;;;;;;9.98;8.08;;;;;;;19.30;100.00;99064.72;1659637;86;21038;-80
2021/08/30 02:35:06;;;;;;;9.20;7.83;;;;;;;19.33;100.00;99069.52;1661373;85;20996;-80
2021/08/30 02:37:38;;;;;;;8.48;7.65;;;;;;;19.37;100.00;99075.16;1661286;86;21077;-79
2021/08/30 02:40:06;;;;;;;7.83;7.12;;;;;;;19.40;99.67;99079.39;1660875;85;21096;-80
2021/08/30 02:42:33;;;;;;;8.48;7.30;;;;;;;19.42;99.33;99076.35;1649318;86;21514;-79
2021/08/30 02:45:05;;;;;;;10.32;9.35;;;;;;;19.43;98.91;99084.75;1660484;85;21049;-80
2021/08/30 02:47:32;;;;;;;9.98;8.75;;;;;;;19.42;98.50;99079.08;1659786;85;21017;-78
2021/08/30 02:49:58;;;;;;;13.90;9.03;;;;;;;19.40;98.17;99076.66;1659954;85;21044;-79
2021/08/30 02:52:24;;;;;;;9.53;8.50;;;;;;;19.39;97.98;99072.33;1661195;85;21499;-80
2021/08/30 02:54:51;;;;;;;10.45;8.60;;;;;;;19.37;97.98;99075.95;1647844;86;20977;-80
2021/08/30 02:57:18;;;;;;;10.15;7.92;;;;;;;19.38;97.90;99073.45;1638895;82;20899;-80
2021/08/30 02:59:51;;;;;;;10.38;8.35;;;;;;;19.39;97.71;99068.80;1659556;83;21072;-81
2021/08/30 03:02:16;;;;;;;11.10;7.87;;;;;;;19.42;97.48;99064.88;1652508;86;21153;-80
2021/08/30 03:04:42;;;;;;;9.30;7.85;;;;;;;19.42;97.11;99064.88;1650471;86;21125;-80
2021/08/30 03:07:09;;;;;;;9.90;7.60;;;;;;;19.43;96.77;99067.83;1658888;86;21593;-79
2021/08/30 03:09:35;;;;;;;10.05;9.05;;;;;;;19.42;96.58;99068.97;1639934;87;21028;-80
2021/08/30 03:12:02;;;;;;;12.63;6.67;;;;;;;19.41;96.61;99061.11;1640092;87;21077;-80
2021/08/30 03:14:28;;;;;;;7.83;7.03;;;;;;;19.42;96.51;99060.80;1637681;87;21522;-80
2021/08/30 03:16:59;;;;;;;13.95;8.33;;;;;;;19.42;96.04;99059.42;1638118;86;21551;-81
2021/08/30 03:19:25;;;;;;;13.13;8.55;;;;;;;19.43;96.04;99073.28;1627772;87;20981;-79
2021/08/30 03:21:55;;;;;;;8.80;7.37;;;;;;;19.43;95.89;99058.84;1615895;87;21676;-79
2021/08/30 03:24:21;;;;;;;8.15;7.35;;;;;;;19.41;95.60;99054.28;1638789;86;21520;-78
2021/08/30 03:26:48;;;;;;;10.40;8.30;;;;;;;19.40;95.57;99069.05;1640061;87;21046;-78
2021/08/30 03:29:16;;;;;;;11.00;9.25;;;;;;;19.39;95.50;99050.51;1616398;87;21857;-79
2021/08/30 03:31:42;;;;;;;9.45;8.15;;;;;;;19.41;95.38;99055.65;1639871;87;21062;-77
2021/08/30 03:34:09;;;;;;;11.90;8.38;;;;;;;19.44;95.13;99057.20;1617470;87;21077;-79
2021/08/30 03:36:37;;;;;;;12.53;9.00;;;;;;;19.43;94.93;99055.55;1640057;87;21058;-78
2021/08/30 03:39:03;;;;;;;12.88;8.13;;;;;;;19.44;94.83;99055.02;1639967;87;21065;-79
2021/08/30 03:41:31;;;;;;;14.10;8.23;;;;;;;19.38;94.83;99058.45;1640001;87;21172;-80
2021/08/30 03:43:57;;;;;;;11.45;9.03;;;;;;;19.40;95.03;99060.86;1615845;86;21104;-79
2021/08/30 03:46:23;;;;;;;16.57;8.90;;;;;;;19.42;95.01;99052.61;1612558;87;21089;-77
2021/08/30 03:48:50;;;;;;;9.10;7.42;;;;;;;19.40;94.91;99048.59;1635015;87;21238;-78
2021/08/30 03:51:16;;;;;;;12.25;8.10;;;;;;;19.41;94.84;99052.36;1635561;87;21089;-79
2021/08/30 03:53:43;;;;;;;9.45;7.45;;;;;;;19.39;94.92;99055.97;1633236;86;21112;-80
2021/08/30 03:56:09;;;;;;;9.65;8.20;;;;;;;19.39;95.02;99059.25;1639603;86;21134;-80
2021/08/30 03:58:38;;;;;;;12.35;8.58;;;;;;;19.38;95.00;99051.62;1640221;85;20989;-81
2021/08/30 04:01:06;;;;;;;10.32;8.33;;;;;;;19.38;94.93;99057.08;1686076;83;21150;-81
2021/08/30 04:03:34;;;;;;;11.95;8.13;;;;;;;19.40;94.71;99057.58;1679803;85;21052;-83
2021/08/30 04:06:05;;;;;;;10.90;8.90;;;;;;;19.42;94.83;99057.27;1662186;84;22038;-80
2021/08/30 04:08:32;;;;;;;9.45;8.55;;;;;;;19.42;94.74;99051.80;1617109;87;21094;-83
2021/08/30 04:11:00;;;;;;;10.53;8.58;;;;;;;19.44;94.55;99052.30;1653886;86;21056;-83
2021/08/30 04:13:26;;;;;;;16.73;8.53;;;;;;;19.46;94.52;99054.95;1636795;86;21553;-81
2021/08/30 04:15:52;;;;;;;17.15;10.10;;;;;;;19.50;94.02;99057.27;1653885;85;20932;-82
2021/08/30 04:18:20;;;;;;;11.33;10.00;;;;;;;19.53;93.73;99052.52;1641908;87;21098;-82
2021/08/30 04:20:48;;;;;;;12.07;7.62;;;;;;;19.53;93.61;99059.34;1617891;86;21642;-79
2021/08/30 04:23:15;;;;;;;7.58;6.87;;;;;;;19.55;93.43;99059.02;1662667;85;20953;-82
2021/08/30 04:25:43;;;;;;;15.32;7.72;;;;;;;19.56;93.08;99068.26;1664342;85;20997;-83
2021/08/30 04:28:09;;;;;;;13.13;8.33;;;;;;;19.58;92.82;99065.99;1637484;87;21122;-82
2021/08/30 04:30:36;;;;;;;9.43;7.53;;;;;;;19.66;92.31;99060.85;1665029;86;21079;-81
2021/08/30 04:33:06;;;;;;;13.03;8.23;;;;;;;19.66;92.31;99060.85;1640160;86;21545;-82
2021/08/30 04:35:31;;;;;;;20.15;9.15;;;;;;;19.65;92.17;99060.61;1661750;85;21054;-83
2021/08/30 04:37:59;;;;;;;7.60;6.78;;;;;;;19.66;92.18;99062.22;1661688;86;21094;-84
2021/08/30 04:40:26;;;;;;;8.28;6.97;;;;;;;19.67;91.99;99054.25;1661661;86;21031;-82
2021/08/30 04:42:53;;;;;;;11.38;8.68;;;;;;;19.69;91.74;99054.73;1662455;85;21274;-82
2021/08/30 04:45:22;;;;;;;12.70;8.65;;;;;;;19.64;91.96;99048.89;1653373;86;21112;-83
2021/08/30 04:47:52;;;;;;;9.08;7.53;;;;;;;19.64;91.80;99047.53;1637752;86;21095;-83
2021/08/30 04:50:19;;;;;;;10.58;7.00;;;;;;;19.64;91.80;99047.53;1659136;86;21490;-84
2021/08/30 04:52:45;;;;;;;12.85;7.97;;;;;;;19.67;91.76;99050.95;1660655;85;21079;-84
2021/08/30 04:55:14;;;;;;;11.97;8.18;;;;;;;19.67;91.57;99055.61;1659319;85;21168;-82
2021/08/30 04:57:40;;;;;;;17.65;8.28;;;;;;;19.67;91.57;99055.61;1659149;86;20994;-83
2021/08/30 05:00:12;;;;;;;16.97;7.80;;;;;;;19.70;91.56;99066.70;1659492;86;21103;-83
2021/08/30 05:02:39;;;;;;;12.77;8.50;;;;;;;19.74;91.25;99080.48;1660749;85;21114;-84
2021/08/30 05:05:06;;;;;;;9.93;8.53;;;;;;;19.83;90.74;99077.97;1647980;87;21060;-82
2021/08/30 05:07:32;;;;;;;12.50;9.33;;;;;;;19.83;90.74;99077.97;1647656;85;21846;-82
2021/08/30 05:09:59;;;;;;;11.20;7.80;;;;;;;19.92;90.18;99085.56;1647299;86;21555;-82
2021/08/30 05:12:27;;;;;;;9.00;7.50;;;;;;;20.00;89.53;99071.64;1677546;85;20960;-81
2021/08/30 05:14:57;;;;;;;15.95;8.03;;;;;;;20.00;89.53;99071.64;1632532;86;21077;-83
2021/08/30 05:17:23;;;;;;;11.48;7.92;;;;;;;20.06;89.48;99068.17;1666313;85;21053;-83
2021/08/30 05:19:52;;;;;;;12.07;8.68;;;;;;;20.10;89.41;99048.08;1654040;86;21250;-83
2021/08/30 05:22:22;;;;;;;11.68;7.72;;;;;;;20.13;89.07;99022.06;1649693;86;21056;-83
2021/08/30 05:24:50;;;;;;;11.60;8.20;;;;;;;20.14;88.71;99044.95;1642043;86;21494;-83
2021/08/30 05:27:20;;;;;;;9.98;8.53;;;;;;;20.12;88.63;99046.39;1631150;86;21581;-82
2021/08/30 05:29:49;;;;;;;14.25;8.48;;;;;;;20.12;88.66;99043.10;1665202;85;21028;-82
2021/08/30 05:32:17;;;;;;;12.43;8.98;;;;;;;20.15;88.31;99057.45;1645709;86;21142;-80
2021/08/30 05:34:43;;;;;;;12.05;8.83;;;;;;;20.19;88.29;99054.30;1654561;86;21076;-80
2021/08/30 05:37:10;;;;;;;15.60;9.33;;;;;;;20.21;88.14;99054.78;1666588;86;21041;-82
2021/08/30 05:39:37;;;;;;;10.40;9.20;;;;;;;20.17;88.16;99058.50;1651757;86;21051;-82
2021/08/30 05:42:05;;;;;;;12.78;10.78;;;;;;;20.18;88.00;99060.91;1661766;85;21580;-81
2021/08/30 05:44:31;;;;;;;12.00;9.50;;;;;;;20.20;87.86;99064.66;1647066;87;21154;-82
2021/08/30 05:46:59;;;;;;;10.78;8.55;;;;;;;20.21;87.85;99062.97;1647233;87;21500;-82
2021/08/30 05:49:26;;;;;;;11.90;9.38;;;;;;;20.28;87.68;99074.20;1647150;87;21564;-81
2021/08/30 05:51:52;;;;;;;18.85;9.93;;;;;;;20.33;87.60;99075.97;1665648;84;21024;-81
2021/08/30 05:54:19;;;;;;;11.10;8.38;;;;;;;20.36;87.27;99076.11;1672463;85;21523;-82
2021/08/30 05:56:45;;;;;;;11.28;9.65;;;;;;;20.41;87.37;99062.82;1645123;87;21778;-80
2021/08/30 05:59:12;;;;;;;13.20;9.15;;;;;;;20.44;87.17;99053.39;1661529;86;20995;-83
2021/08/30 06:01:41;;;;;;;12.13;8.95;;;;;;;20.49;86.92;99054.33;1663191;85;21500;-83
2021/08/30 06:04:06;;;;;;;10.58;7.97;;;;;;;20.54;86.43;99057.67;1647032;87;21547;-84
2021/08/30 06:06:37;;;;;;;10.43;9.23;;;;;;;20.59;86.05;99052.02;1641098;86;21016;-83
2021/08/30 06:09:04;;;;;;;11.83;8.78;;;;;;;20.65;85.90;99054.00;1633622;86;22148;-84
2021/08/30 06:11:34;;;;;;;10.80;9.18;;;;;;;20.72;85.68;99050.96;1666920;84;21008;-82
2021/08/30 06:14:01;;;;;;;13.95;9.65;;;;;;;20.79;85.04;99029.38;1666391;84;21597;-83
2021/08/30 06:16:30;;;;;;;12.07;9.65;;;;;;;20.84;84.77;99029.75;1666847;85;21485;-82
2021/08/30 06:18:58;;;;;;;9.68;8.73;;;;;;;20.87;84.98;99033.17;1641036;85;21095;-83
2021/08/30 06:21:28;;;;;;;9.65;8.48;;;;;;;20.90;84.78;99044.82;1689813;83;21115;-82
2021/08/30 06:23:55;;;;;;;9.98;8.98;;;;;;;20.98;84.77;99056.25;1665883;85;21072;-82
2021/08/30 06:26:23;;;;;;;10.35;8.68;;;;;;;21.03;84.05;99057.98;1663560;85;20984;-82
2021/08/30 06:28:50;;;;;;;12.47;10.80;;;;;;;21.09;83.72;99042.98;1659809;85;21104;-81
2021/08/30 07:26:05;;;;;;;22.93;10.78;;;;;;;22.14;74.54;99034.98;1751948;77;25095;-77
2021/08/30 07:28:31;;;;;;;22.22;12.95;;;;;;;22.21;73.82;99029.47;1756430;81;20927;-79
2021/08/30 07:30:57;;;;;;;34.35;10.93;;;;;;;22.30;72.81;99039.17;1756860;81;21234;-79
2021/08/30 07:33:24;;;;;;;18.75;10.00;;;;;;;22.38;72.84;99036.11;1756973;81;21010;-78
2021/08/30 07:35:52;;;;;;;12.60;10.00;;;;;;;22.45;72.01;99028.09;1757321;81;21491;-76
2021/08/30 07:38:18;;;;;;;12.25;10.85;;;;;;;22.53;71.57;99036.78;1757192;81;20990;-76
2021/08/30 07:40:45;;;;;;;18.80;10.55;;;;;;;22.58;71.63;99029.12;1757863;81;21022;-76
2021/08/30 07:43:12;;;;;;;18.98;11.85;;;;;;;22.64;71.05;99026.92;1757056;81;21200;-77
2021/08/30 07:45:38;;;;;;;19.70;12.90;;;;;;;22.68;70.98;99026.48;1757381;81;20935;-79
2021/08/30 07:48:06;;;;;;;21.95;11.83;;;;;;;22.76;71.38;99035.17;1727483;81;22238;-74
2021/08/30 07:50:32;;;;;;;19.90;11.75;;;;;;;22.84;71.11;99029.31;1757361;81;20927;-76
2021/08/30 07:52:59;;;;;;;24.40;12.68;;;;;;;22.91;70.79;99029.53;1752402;80;20947;-73
2021/08/30 07:55:25;;;;;;;29.77;10.88;;;;;;;22.99;70.92;99028.58;1752411;80;22101;-77
2021/08/30 07:57:51;;;;;;;17.48;12.33;;;;;;;23.07;70.31;99026.27;1757213;81;21133;-77
2021/08/30 08:00:17;;;;;;;21.33;11.57;;;;;;;23.15;69.35;99021.79;1752214;80;20978;-78
2021/08/30 08:02:44;;;;;;;24.70;12.35;;;;;;;23.24;69.23;99025.98;1757187;81;20991;-78
2021/08/30 08:05:10;;;;;;;24.32;13.10;;;;;;;23.37;68.88;99033.58;1757576;81;21503;-79
2021/08/30 08:07:38;;;;;;;25.02;13.00;;;;;;;23.43;67.92;99027.48;1757112;81;20954;-76
2021/08/30 08:10:07;;;;;;;21.80;14.05;;;;;;;23.49;67.72;99032.19;1757224;81;21059;-78
2021/08/30 08:12:34;;;;;;;24.10;12.53;;;;;;;23.57;67.42;99022.98;1757185;81;20979;-78
2021/08/30 08:15:05;;;;;;;26.57;14.53;;;;;;;23.64;67.35;99025.13;1757393;81;21100;-78
2021/08/30 08:17:31;;;;;;;25.65;14.40;;;;;;;23.67;66.01;99015.60;1757279;81;21021;-77
2021/08/30 08:19:58;;;;;;;21.00;13.75;;;;;;;23.73;66.42;99006.53;1758619;81;21138;-77
2021/08/30 08:22:24;;;;;;;23.15;13.90;;;;;;;23.78;65.95;99014.51;1759863;80;20906;-78
2021/08/30 08:24:50;;;;;;;20.65;13.38;;;;;;;23.75;66.10;99013.83;1762158;81;20901;-76
2021/08/30 08:27:17;;;;;;;29.87;13.80;;;;;;;23.80;66.57;98995.71;1764903;81;20977;-75
2021/08/30 08:30:06;;;;;;;33.45;12.47;;;;;;;23.85;65.80;99006.44;1763480;81;20985;-77
2021/08/30 08:32:32;;;;;;;28.50;11.48;;;;;;;23.92;66.01;99020.36;1748271;81;22237;-76
2021/08/30 08:34:59;;;;;;;26.95;13.45;;;;;;;24.00;65.47;99013.88;1762052;81;20937;-80
2021/08/30 08:37:26;;;;;;;27.07;15.15;;;;;;;24.08;65.30;99010.72;1751704;81;20981;-77
2021/08/30 08:39:54;;;;;;;39.75;16.12;;;;;;;24.15;64.47;99010.33;1777855;80;20963;-78
2021/08/30 08:42:20;;;;;;;27.32;12.35;;;;;;;24.18;63.76;98993.14;1758748;81;21016;-77
2021/08/30 08:44:46;;;;;;;24.30;13.08;;;;;;;24.22;63.78;98975.39;1787084;80;22808;-78
2021/08/30 08:47:16;;;;;;;20.65;11.85;;;;;;;24.28;63.32;98967.06;1758186;81;21052;-75
2021/08/30 08:49:44;;;;;;;23.00;13.43;;;;;;;24.32;63.54;98983.86;1759112;80;21083;-76
2021/08/30 08:52:10;;;;;;;36.05;14.35;;;;;;;24.41;64.00;98989.18;1786833;80;21013;-78
2021/08/30 08:54:37;;;;;;;27.13;12.23;;;;;;;24.51;63.21;98989.20;1759433;81;21060;-76
2021/08/30 08:57:04;;;;;;;25.12;12.80;;;;;;;24.60;63.41;98987.05;1787041;80;21010;-75
2021/08/30 08:59:30;;;;;;;19.50;10.93;;;;;;;24.70;63.00;98990.00;1784003;80;21452;-75
2021/08/30 09:01:59;;;;;;;20.35;13.58;;;;;;;24.79;62.39;98982.13;1765092;81;21023;-76
2021/08/30 09:04:35;;;;;;;21.95;11.38;;;;;;;24.88;61.90;98967.61;1765233;81;21075;-78
2021/08/30 09:07:13;;;;;;;25.15;11.93;;;;;;;24.92;61.36;98956.89;1760140;80;21018;-78
2021/08/30 09:09:40;;;;;;;18.82;12.93;;;;;;;24.96;61.17;98959.70;1744952;81;21155;-75
2021/08/30 09:12:20;;;;;;;17.00;11.35;;;;;;;24.98;60.91;98974.72;1786949;80;21597;-77
2021/08/30 09:14:48;;;;;;;15.45;11.48;;;;;;;24.99;60.76;98974.11;1733261;81;20973;-76
2021/08/30 09:17:16;;;;;;;14.80;11.08;;;;;;;25.01;60.60;98977.30;1786651;80;20907;-74
2021/08/30 09:19:43;;;;;;;24.25;11.05;;;;;;;25.03;60.07;98991.51;1781065;80;21045;-76
2021/08/30 09:22:10;;;;;;;19.02;11.88;;;;;;;25.04;60.22;98985.63;1756280;80;21184;-77
2021/08/30 09:24:37;;;;;;;14.23;10.23;;;;;;;25.08;60.39;98987.09;1789519;78;21167;-77
2021/08/30 09:27:10;;;;;;;18.20;10.88;;;;;;;25.14;60.20;98989.17;1784119;80;20911;-78
2021/08/30 09:29:42;;;;;;;20.43;13.10;;;;;;;25.21;60.11;98994.02;1753285;79;20882;-77
2021/08/30 09:32:13;;;;;;;15.38;10.50;;;;;;;25.31;60.36;98981.63;1763696;81;21022;-75
2021/08/30 09:34:46;;;;;;;12.95;10.48;;;;;;;25.37;60.11;98971.31;1786924;80;20988;-94
2021/08/30 09:37:21;;;;;;;13.63;12.23;;;;;;;25.46;59.75;98976.60;1760700;80;21033;-93
2021/08/30 09:39:51;;;;;;;19.15;11.53;;;;;;;25.48;59.21;98971.50;1787216;80;21554;-90
2021/08/30 09:42:17;;;;;;;22.85;11.20;;;;;;;25.49;59.35;98968.39;1785147;80;21120;-77
2021/08/30 09:44:45;;;;;;;14.45;10.82;;;;;;;25.55;59.64;98967.55;1787175;79;20991;-78
2021/08/30 09:47:17;;;;;;;20.68;12.23;;;;;;;25.61;59.65;98958.59;1791335;79;21534;-79
2021/08/30 09:49:54;;;;;;;22.13;11.43;;;;;;;25.67;59.01;98965.97;1777641;80;21498;-79
2021/08/30 09:52:24;;;;;;;19.85;11.25;;;;;;;25.72;58.97;98959.36;1735389;81;21671;-81
2021/08/30 09:54:54;;;;;;;18.02;12.23;;;;;;;25.78;58.81;98963.41;1763456;80;22166;-83
2021/08/30 09:57:21;;;;;;;20.55;10.00;;;;;;;25.81;58.76;98956.56;1784300;80;20971;-81
2021/08/30 09:59:49;;;;;;;33.20;12.60;;;;;;;25.87;58.91;98939.15;1747815;81;21180;-83
2021/08/30 10:02:17;;;;;;;23.57;11.22;;;;;;;25.91;58.57;98940.80;1787032;80;21002;-83
2021/08/30 10:04:44;;;;;;;20.52;12.95;;;;;;;25.95;58.36;98939.46;1758736;81;20964;-80
2021/08/30 10:07:12;;;;;;;23.02;10.23;;;;;;;25.99;58.08;98943.86;1784262;80;21014;-79
2021/08/30 10:09:40;;;;;;;17.20;12.10;;;;;;;25.99;58.15;98949.37;1759012;81;20973;-80
2021/08/30 10:12:08;;;;;;;13.88;10.75;;;;;;;26.01;58.07;98951.19;1775584;80;21082;-79
2021/08/30 10:14:36;;;;;;;14.50;11.48;;;;;;;26.03;58.00;98948.07;1741471;81;20961;-78
2021/08/30 10:17:04;;;;;;;12.68;10.05;;;;;;;26.03;58.40;98943.36;1785754;80;21066;-78
2021/08/30 10:19:35;;;;;;;16.87;10.05;;;;;;;26.08;58.03;98951.09;1759015;81;21539;-77
2021/08/30 10:22:17;;;;;;;;;;;;;;;26.05;58.02;98953.41;1789729;80;20966;-75
2021/08/30 10:24:47;;;;;;;19.95;12.55;;;;;;;26.09;58.13;98956.83;1762855;81;21142;-77
2021/08/30 10:27:14;;;;;;;15.23;11.33;;;;;;;26.14;58.03;98970.29;1740129;82;20953;-77
2021/08/30 10:29:42;;;;;;;18.75;11.68;;;;;;;26.13;58.19;98976.97;1766485;81;20996;-77
2021/08/30 10:32:22;;;;;;;26.50;12.65;;;;;;;26.11;58.24;98965.50;1770244;81;21129;-89
2021/08/30 10:34:57;;;;;;;19.73;12.03;;;;;;;26.13;58.63;98964.56;1744676;81;21060;-85
2021/08/30 10:37:24;;;;;;;36.70;13.50;;;;;;;26.14;57.82;98960.64;1770131;81;21147;-84
2021/08/30 10:39:54;;;;;;;17.25;10.75;;;;;;;26.18;57.86;98960.91;1770116;81;20944;-81
2021/08/30 10:42:22;;;;;;;37.73;11.48;;;;;;;26.30;57.99;98972.32;1771284;81;21540;-77
2021/08/30 10:44:55;;;;;;;17.57;10.98;;;;;;;26.38;57.85;98955.50;1770904;81;20992;-78
2021/08/30 10:47:28;;;;;;;;;;;;;;;26.46;57.67;98959.16;1771916;81;21489;-81
2021/08/30 10:49:54;;;;;;;15.03;10.65;;;;;;;26.52;57.57;98946.64;1789417;80;20981;-86
2021/08/30 10:52:21;;;;;;;10.93;9.23;;;;;;;26.55;57.19;98959.68;1760784;81;21040;-84
2021/08/30 10:54:57;;;;;;;21.65;10.68;;;;;;;26.58;57.36;98957.55;1740483;82;21026;-81
2021/08/30 10:57:39;;;;;;;18.98;11.65;;;;;;;26.60;57.54;98961.31;1759281;81;20991;-81
2021/08/30 11:00:10;;;;;;;18.32;10.98;;;;;;;26.65;57.45;98944.44;1781723;80;21011;-81
2021/08/30 11:02:45;;;;;;;22.02;12.00;;;;;;;26.73;56.84;98938.62;1759362;81;21191;-82
2021/08/30 11:05:11;;;;;;;18.35;10.68;;;;;;;26.78;56.08;98938.88;1789990;80;21120;-81
2021/08/30 11:07:38;;;;;;;20.05;12.13;;;;;;;26.83;56.84;98939.92;1759298;81;21489;-77
2021/08/30 11:10:09;;;;;;;16.82;11.50;;;;;;;26.91;56.34;98945.76;1732345;81;21494;-77
2021/08/30 11:12:41;;;;;;;15.00;9.90;;;;;;;26.96;56.06;98963.95;1756470;81;20974;-81
2021/08/30 11:15:10;;;;;;;28.80;11.45;;;;;;;27.03;55.64;98964.05;1762163;79;21290;-82
2021/08/30 11:17:36;;;;;;;21.25;11.35;;;;;;;27.14;55.08;98967.73;1746757;81;21028;-73
2021/08/30 11:20:04;;;;;;;26.93;12.15;;;;;;;27.20;54.79;98962.86;1770947;80;21540;-74
2021/08/30 11:22:31;;;;;;;17.95;10.72;;;;;;;27.21;54.21;98947.88;1755038;81;20945;-74
2021/08/30 11:25:03;;;;;;;17.07;10.55;;;;;;;27.23;54.61;98942.79;1768558;80;22202;-73
2021/08/30 11:27:32;;;;;;;21.87;10.65;;;;;;;27.25;54.99;98939.63;1713039;82;21294;-75
2021/08/30 11:30:11;;;;;;;17.15;10.75;;;;;;;27.23;55.16;98957.18;1701791;83;20931;-78
2021/08/30 11:32:37;;;;;;;28.42;13.25;;;;;;;27.14;55.12;98951.97;1729646;83;20947;-85
2021/08/30 11:35:08;;;;;;;23.15;11.03;;;;;;;27.09;55.28;98951.50;1720628;81;21063;-79
2021/08/30 11:37:35;;;;;;;19.98;11.28;;;;;;;27.04;55.20;98942.18;1695262;83;21482;-79
2021/08/30 11:40:06;;;;;;;17.75;11.65;;;;;;;26.99;55.26;98943.31;1755980;81;23238;-77
2021/08/30 11:42:33;;;;;;;32.83;11.68;;;;;;;27.01;55.48;98951.20;1759567;81;21006;-78
2021/08/30 11:45:01;;;;;;;15.78;10.00;;;;;;;27.04;55.41;98947.12;1730451;81;21574;-80
2021/08/30 11:47:28;;;;;;;24.80;10.82;;;;;;;27.12;55.29;98942.45;1752482;81;20932;-83
2021/08/30 11:50:01;;;;;;;20.55;13.35;;;;;;;27.24;55.44;98948.50;1759741;81;21610;-75
2021/08/30 11:52:30;;;;;;;18.00;10.55;;;;;;;27.37;55.13;98938.58;1731791;81;21085;-84
2021/08/30 11:55:02;;;;;;;16.82;10.82;;;;;;;27.50;54.75;98943.47;1759864;81;20995;-84
2021/08/30 11:57:45;;;;;;;20.37;11.95;;;;;;;27.64;55.39;98939.45;1735050;81;20944;-82
2021/08/30 12:00:22;;;;;;;20.82;9.98;;;;;;;27.79;55.10;98941.74;1724401;82;21261;-83
2021/08/30 12:02:57;;;;;;;24.82;11.30;;;;;;;27.94;54.17;98937.92;1700494;84;21279;-78
2021/08/30 12:05:25;;;;;;;21.87;12.03;;;;;;;28.01;53.38;98945.48;1700797;83;21078;-78
2021/08/30 12:07:53;;;;;;;19.30;11.68;;;;;;;27.99;53.00;98955.53;1698328;82;20983;-77
2021/08/30 12:10:21;;;;;;;23.42;12.90;;;;;;;28.04;53.06;98947.47;1728362;83;20900;-80
2021/08/30 12:13:08;;;;;;;17.62;12.98;;;;;;;28.18;52.67;98953.92;1729812;82;21476;-81
2021/08/30 12:15:27;;;;;;;19.00;12.07;;;;;;;28.32;52.06;98948.27;1727823;83;20925;-79
2021/08/30 12:17:56;;;;;;;18.40;11.65;;;;;;;28.21;51.90;98961.22;1730287;81;22018;-79
2021/08/30 12:20:39;;;;;;;18.20;12.80;;;;;;;28.12;52.13;98957.42;1730239;83;20916;-81
2021/08/30 12:23:09;;;;;;;15.40;11.65;;;;;;;28.08;52.32;98946.31;1729790;83;20951;-80
2021/08/30 12:25:40;;;;;;;23.42;11.73;;;;;;;28.15;51.99;98943.61;1708446;81;21022;-83
2021/08/30 12:28:09;;;;;;;23.05;12.58;;;;;;;28.18;51.65;98951.16;1762469;80;21039;-80